Terminal Aerodrome Forecast
Issued by NWS Wilmington, OH

Current Version | Previous Version | Text Only | Print | Product List | Glossary Off
Versions: 1 2 3 4 5 6 7 8 9 10 11 12 13 14 15 16 17 18 19 20 21 22 23 24 25 26

052
FTUS41 KILN 130542
TAFCVG
TAF
KCVG 130542Z 1306/1412 27005KT P6SM FEW080
     FM131000 20005KT P6SM BKN080
     FM131500 20012G20KT P6SM BKN120
     FM132200 23015G23KT P6SM BKN080
     FM140100 27015G23KT P6SM OVC040
     FM140700 31012KT P6SM OVC035=

USA.gov is the U.S. government's official web portal to all federal, state and local government web resources and services.